Time;durP1;ratioP1;P1;durP2;ratioP2;P2;SDS_P1;SDS_P2;PMS_P1;PMS_P2;Temp;Humidity;BMP_temperature;BMP_pressure;BME280_temperature;BME280_humidity;BME280_pressure;Samples;Min_cycle;Max_cycle;Signal;HPM_P1;HPM_P2
2023/08/14 00:00:40;;;;;;;5.43;3.87;;;;;;;17.25;100.00;100824.20;1480994;87;21345;-83
2023/08/14 00:03:07;;;;;;;3.97;3.33;;;;;;;17.26;100.00;100824.52;1472673;87;21368;-83
2023/08/14 00:05:33;;;;;;;9.67;3.87;;;;;;;17.27;100.00;100822.19;1477226;88;21316;-84
2023/08/14 00:08:00;;;;;;;4.63;3.60;;;;;;;17.27;100.00;100826.20;1473811;87;22219;-83
2023/08/14 00:10:26;;;;;;;4.63;4.07;;;;;;;17.23;100.00;100824.38;1466681;88;21316;-83
2023/08/14 00:12:53;;;;;;;5.40;4.13;;;;;;;17.20;100.00;100819.39;1476646;87;22498;-82
2023/08/14 00:15:19;;;;;;;7.13;5.00;;;;;;;17.16;100.00;100815.94;1472052;87;21457;-82
2023/08/14 00:17:45;;;;;;;5.80;4.63;;;;;;;17.10;100.00;100812.97;1476205;87;21493;-83
2023/08/14 00:20:11;;;;;;;4.77;4.30;;;;;;;17.07;100.00;100814.67;1473102;88;22279;-84
2023/08/14 00:22:38;;;;;;;8.57;4.40;;;;;;;17.03;100.00;100816.05;1473909;87;21456;-85
2023/08/14 00:25:04;;;;;;;9.10;4.10;;;;;;;17.03;100.00;100813.38;1465233;88;21390;-86
2023/08/14 00:27:31;;;;;;;8.60;4.87;;;;;;;17.06;100.00;100813.50;1476528;88;21323;-87
2023/08/14 00:29:57;;;;;;;8.80;4.00;;;;;;;17.11;100.00;100820.48;1469216;87;21420;-85
2023/08/14 00:32:24;;;;;;;5.80;4.10;;;;;;;17.13;100.00;100817.13;1474726;88;21368;-86
2023/08/14 00:34:50;;;;;;;7.27;5.03;;;;;;;17.12;100.00;100820.31;1477135;87;21497;-88
2023/08/14 00:37:16;;;;;;;5.23;4.73;;;;;;;17.11;100.00;100817.80;1470438;87;21426;-84
2023/08/14 00:39:42;;;;;;;9.33;5.80;;;;;;;17.09;100.00;100815.33;1470976;87;21583;-85
2023/08/14 00:42:08;;;;;;;7.10;5.67;;;;;;;17.04;100.00;100820.38;1475926;88;21405;-85
2023/08/14 00:44:34;;;;;;;7.17;5.27;;;;;;;16.99;100.00;100816.07;1478332;88;21367;-81
2023/08/14 00:47:01;;;;;;;9.43;4.37;;;;;;;16.97;100.00;100822.09;1467677;87;21309;-84
2023/08/14 00:49:27;;;;;;;6.97;4.13;;;;;;;16.97;100.00;100818.09;1469084;88;21316;-85
2023/08/14 00:51:53;;;;;;;4.97;4.07;;;;;;;16.99;100.00;100819.26;1468440;88;21449;-84
2023/08/14 00:54:19;;;;;;;5.07;4.00;;;;;;;16.99;100.00;100821.42;1474088;88;21397;-85
2023/08/14 00:56:46;;;;;;;10.57;4.93;;;;;;;17.01;100.00;100824.75;1466307;88;22225;-85
2023/08/14 00:59:13;;;;;;;6.40;4.50;;;;;;;16.96;100.00;100821.78;1471694;87;21360;-86
2023/08/14 01:01:39;;;;;;;6.77;4.33;;;;;;;16.88;100.00;100817.83;1477244;87;21404;-83
2023/08/14 01:04:05;;;;;;;4.53;3.97;;;;;;;16.82;100.00;100831.41;1478788;87;21316;-85
2023/08/14 01:06:32;;;;;;;3.93;3.37;;;;;;;16.79;100.00;100828.27;1473903;88;21547;-86
2023/08/14 01:08:58;;;;;;;4.07;3.30;;;;;;;16.79;100.00;100832.28;1463814;88;21367;-85
2023/08/14 01:11:33;;;;;;;5.27;3.40;;;;;;;16.78;100.00;100829.28;1440290;88;21360;-87
2023/08/14 01:14:20;;;;;;;5.27;4.00;;;;;;;16.77;100.00;100826.27;1469001;87;21590;-85
2023/08/14 01:16:51;;;;;;;5.67;4.53;;;;;;;16.76;100.00;100833.94;1476880;88;22447;-85
2023/08/14 01:19:24;;;;;;;8.40;4.10;;;;;;;16.75;100.00;100834.96;1472126;87;21405;-86
2023/08/14 01:22:12;;;;;;;5.23;3.63;;;;;;;16.73;100.00;100836.97;1471374;87;21360;-86
2023/08/14 01:24:53;;;;;;;9.77;4.80;;;;;;;16.70;100.00;100838.98;1464403;88;21485;-87
2023/08/14 01:27:21;;;;;;;9.35;4.80;;;;;;;16.63;100.00;100836.70;1473107;87;21486;-87
2023/08/14 01:29:59;;;;;;;6.40;4.67;;;;;;;16.55;100.00;100835.92;1471154;87;22224;-85
2023/08/14 01:32:26;;;;;;;5.03;4.53;;;;;;;16.49;100.00;100836.13;1475850;87;22478;-85
2023/08/14 01:34:54;;;;;;;8.07;4.77;;;;;;;16.49;100.00;100835.30;1479453;87;21434;-85
2023/08/14 01:37:41;;;;;;;8.27;5.00;;;;;;;16.50;100.00;100835.62;1460944;88;21434;-85
2023/08/14 01:40:18;;;;;;;6.40;4.73;;;;;;;16.52;100.00;100830.94;1474389;87;21405;-85
2023/08/14 01:42:48;;;;;;;6.47;4.60;;;;;;;16.54;100.00;100828.39;1435600;87;22380;-84
2023/08/14 01:45:19;;;;;;;5.65;4.28;;;;;;;16.56;100.00;100830.90;1483675;87;21338;-84
2023/08/14 01:47:48;;;;;;;7.47;4.33;;;;;;;16.52;100.00;100838.44;1476726;87;22241;-86
2023/08/14 01:50:15;;;;;;;6.40;4.73;;;;;;;16.48;100.00;100834.44;1474502;88;22328;-84
2023/08/14 01:52:42;;;;;;;9.20;4.80;;;;;;;16.44;100.00;100844.66;1473349;88;21383;-84
2023/08/14 01:55:08;;;;;;;5.03;4.63;;;;;;;16.44;100.00;100845.99;1474953;88;21434;-85
2023/08/14 01:57:35;;;;;;;6.90;4.50;;;;;;;16.45;100.00;100846.31;1470144;87;21508;-86
2023/08/14 02:00:01;;;;;;;5.13;4.63;;;;;;;16.45;100.00;100845.48;1475775;88;21376;-86
2023/08/14 02:02:27;;;;;;;8.30;4.40;;;;;;;16.43;100.00;100846.19;1472511;87;22336;-86
2023/08/14 02:04:54;;;;;;;10.33;4.67;;;;;;;16.36;100.00;100851.38;1468760;88;21531;-85
2023/08/14 02:07:20;;;;;;;17.73;4.43;;;;;;;16.28;100.00;100850.08;1475769;87;21390;-85
2023/08/14 02:09:46;;;;;;;7.80;4.27;;;;;;;16.24;100.00;100853.61;1472640;87;22764;-85
2023/08/14 02:12:13;;;;;;;10.53;4.03;;;;;;;16.24;100.00;100860.79;1471003;87;21967;-84
2023/08/14 02:14:39;;;;;;;6.93;4.67;;;;;;;16.19;100.00;100855.96;1475902;87;21316;-85
2023/08/14 02:17:05;;;;;;;8.00;4.17;;;;;;;16.16;100.00;100859.48;1470684;87;21567;-85
2023/08/14 02:19:31;;;;;;;7.60;3.93;;;;;;;16.13;100.00;100862.51;1466953;88;21472;-83
2023/08/14 02:21:57;;;;;;;5.53;4.33;;;;;;;16.04;100.00;100871.05;1469422;88;22756;-85
2023/08/14 02:24:23;;;;;;;6.40;4.60;;;;;;;15.98;100.00;100871.74;1474301;87;21323;-81
2023/08/14 02:26:49;;;;;;;4.67;3.90;;;;;;;15.94;100.00;100875.74;1473900;87;21847;-83
2023/08/14 02:29:17;;;;;;;5.43;4.87;;;;;;;15.93;100.00;100870.08;1469818;87;21346;-84
2023/08/14 02:31:46;;;;;;;6.40;3.63;;;;;;;15.96;100.00;100871.08;1467780;87;21589;-81
2023/08/14 02:34:12;;;;;;;5.87;4.40;;;;;;;15.98;100.00;100867.73;1476880;87;21420;-85
2023/08/14 02:36:38;;;;;;;7.03;3.83;;;;;;;15.95;100.00;100866.75;1458761;88;21619;-84
2023/08/14 02:39:04;;;;;;;4.90;4.40;;;;;;;15.96;100.00;100871.08;1474575;87;21464;-85
2023/08/14 02:41:30;;;;;;;4.93;4.43;;;;;;;15.93;100.00;100870.08;1477444;88;22367;-85
2023/08/14 02:43:57;;;;;;;4.47;4.07;;;;;;;15.93;100.00;100870.08;1469324;87;21361;-85
2023/08/14 02:46:23;;;;;;;8.00;4.77;;;;;;;15.96;100.00;100868.41;1471712;88;21501;-85
2023/08/14 02:48:49;;;;;;;5.37;4.87;;;;;;;15.98;100.00;100870.41;1469165;87;21456;-85
2023/08/14 02:51:16;;;;;;;6.47;4.63;;;;;;;15.97;100.00;100870.09;1461079;88;21449;-84
2023/08/14 02:53:43;;;;;;;6.20;4.97;;;;;;;15.97;100.00;100868.25;1473742;88;21375;-85
2023/08/14 02:56:09;;;;;;;11.13;5.53;;;;;;;15.98;100.00;100873.91;1473216;88;21346;-86
2023/08/14 02:58:35;;;;;;;8.70;5.37;;;;;;;15.99;100.00;100869.39;1465621;88;21470;-85
2023/08/14 03:01:04;;;;;;;9.07;5.00;;;;;;;15.99;100.00;100872.06;1461828;88;21450;-83
2023/08/14 03:03:30;;;;;;;8.63;4.70;;;;;;;15.95;100.00;100870.75;1458582;88;21545;-84
2023/08/14 03:05:59;;;;;;;6.33;4.87;;;;;;;15.93;100.00;100874.09;1471742;88;21310;-85
2023/08/14 03:08:26;;;;;;;6.23;4.77;;;;;;;15.94;100.00;100878.41;1470555;87;21552;-84
2023/08/14 03:10:53;;;;;;;7.43;4.30;;;;;;;15.98;100.00;100877.08;1475270;87;21331;-84
2023/08/14 03:13:19;;;;;;;11.90;5.63;;;;;;;15.99;100.00;100870.73;1479622;88;21405;-84
2023/08/14 03:15:45;;;;;;;7.83;5.03;;;;;;;16.01;100.00;100879.41;1472329;87;21582;-81
2023/08/14 03:18:11;;;;;;;8.70;5.63;;;;;;;16.03;100.00;100880.58;1469382;88;21406;-80
2023/08/14 03:20:38;;;;;;;8.20;5.30;;;;;;;16.04;100.00;100880.91;1483548;87;21475;-81
2023/08/14 03:23:04;;;;;;;9.30;5.47;;;;;;;16.04;100.00;100885.73;1473201;88;21382;-82
2023/08/14 03:25:30;;;;;;;8.93;4.83;;;;;;;16.04;100.00;100888.41;1471509;88;21345;-81
2023/08/14 03:27:56;;;;;;;16.93;6.40;;;;;;;16.05;100.00;100896.73;1477495;88;21575;-81
2023/08/14 03:30:22;;;;;;;8.40;5.57;;;;;;;16.05;100.00;100898.06;1471532;87;21803;-81
2023/08/14 03:32:48;;;;;;;10.30;5.70;;;;;;;16.05;100.00;100895.39;1465242;87;21463;-81
2023/08/14 03:35:15;;;;;;;6.07;5.27;;;;;;;16.05;100.00;100903.41;1466614;88;22262;-82
2023/08/14 03:37:41;;;;;;;7.33;5.30;;;;;;;16.00;100.00;100900.44;1472360;88;21596;-81
2023/08/14 03:40:08;;;;;;;7.53;5.30;;;;;;;15.95;100.00;100902.78;1485887;88;22373;-81
2023/08/14 03:42:34;;;;;;;6.03;5.23;;;;;;;15.90;100.00;100906.46;1476328;88;22299;-82
2023/08/14 03:45:01;;;;;;;6.87;4.93;;;;;;;15.89;100.00;100909.64;1467029;87;21375;-81
2023/08/14 03:47:27;;;;;;;6.33;5.33;;;;;;;15.89;100.00;100906.14;1469971;88;21434;-82
2023/08/14 03:49:53;;;;;;;7.77;5.13;;;;;;;15.86;100.00;100897.14;1476397;87;21596;-82
2023/08/14 03:52:19;;;;;;;7.87;4.93;;;;;;;15.82;100.00;100903.81;1467458;87;21494;-80
2023/08/14 03:54:45;;;;;;;9.60;4.67;;;;;;;15.77;100.00;100899.83;1471961;87;21376;-82
2023/08/14 03:57:11;;;;;;;11.97;5.77;;;;;;;15.72;100.00;100896.83;1471303;88;21363;-82
2023/08/14 03:59:37;;;;;;;6.00;5.40;;;;;;;15.68;100.00;100898.18;1469414;87;21516;-81
2023/08/14 04:02:04;;;;;;;17.30;5.70;;;;;;;15.66;100.00;100900.66;1473740;87;21456;-81
2023/08/14 04:04:30;;;;;;;7.87;4.93;;;;;;;15.67;100.00;100900.47;1469435;88;21412;-81
2023/08/14 04:06:57;;;;;;;14.07;5.70;;;;;;;15.71;100.00;100901.84;1478930;87;21413;-81
2023/08/14 04:09:24;;;;;;;9.40;5.10;;;;;;;15.72;100.00;100896.83;1469852;88;21480;-85
2023/08/14 04:11:50;;;;;;;16.20;5.10;;;;;;;15.74;100.00;100899.34;1476147;88;21427;-82
2023/08/14 04:14:16;;;;;;;22.87;5.70;;;;;;;15.76;100.00;100898.14;1473334;87;21377;-83
2023/08/14 04:16:43;;;;;;;10.40;5.77;;;;;;;15.76;100.00;100903.48;1474851;87;21339;-82
2023/08/14 04:19:15;;;;;;;13.27;6.90;;;;;;;15.77;100.00;100897.66;1480621;88;21360;-82
2023/08/14 04:21:42;;;;;;;12.73;5.43;;;;;;;15.78;100.00;100892.14;1475842;88;21434;-81
2023/08/14 04:24:09;;;;;;;12.97;5.73;;;;;;;15.84;100.00;100897.81;1475373;88;21382;-82
2023/08/14 04:26:36;;;;;;;14.93;6.33;;;;;;;15.90;100.00;100893.12;1479368;87;21330;-83
2023/08/14 04:29:06;;;;;;;7.90;5.37;;;;;;;15.98;100.00;100898.44;1482050;87;21443;-84
2023/08/14 04:31:39;;;;;;;6.93;5.47;;;;;;;16.06;100.00;100894.41;1476123;88;21508;-85
2023/08/14 04:34:06;;;;;;;7.43;5.07;;;;;;;16.15;100.00;100896.05;1478381;87;21612;-83
2023/08/14 04:36:35;;;;;;;10.13;5.50;;;;;;;16.23;100.00;100898.69;1480546;87;21346;-85
2023/08/14 04:39:04;;;;;;;5.67;5.17;;;;;;;16.31;100.00;100894.30;1480663;87;21353;-84
2023/08/14 04:41:31;;;;;;;10.53;5.07;;;;;;;16.41;100.00;100897.61;1478845;88;21412;-85
2023/08/14 04:43:57;;;;;;;6.93;4.50;;;;;;;16.50;100.00;100896.56;1478041;87;22588;-82
2023/08/14 04:46:37;;;;;;;8.00;5.13;;;;;;;16.59;100.00;100895.50;1473347;87;22292;-81
2023/08/14 04:49:04;;;;;;;14.43;5.33;;;;;;;16.68;100.00;100899.78;1470168;88;21546;-81
2023/08/14 04:51:31;;;;;;;12.80;5.57;;;;;;;16.76;100.00;100900.76;1472338;87;22299;-81
2023/08/14 04:53:59;;;;;;;8.77;5.47;;;;;;;16.83;100.00;100902.59;1476691;87;21390;-81
2023/08/14 04:56:26;;;;;;;8.60;5.77;;;;;;;16.89;100.00;100907.73;1472540;87;21419;-82
2023/08/14 04:58:53;;;;;;;14.13;6.33;;;;;;;16.93;100.00;100909.03;1468403;87;21586;-81
2023/08/14 05:01:20;;;;;;;16.33;5.57;;;;;;;16.99;100.00;100912.33;1468624;87;21361;-81
2023/08/14 05:03:46;;;;;;;10.80;6.00;;;;;;;17.09;100.00;100912.94;1474435;87;21406;-80
2023/08/14 05:06:12;;;;;;;17.03;5.60;;;;;;;17.21;100.00;100908.52;1479773;87;21324;-81
2023/08/14 05:08:38;;;;;;;11.30;6.07;;;;;;;17.36;100.00;100915.55;1466491;88;22314;-80
2023/08/14 05:11:05;;;;;;;10.50;6.57;;;;;;;17.51;100.00;100918.78;1469619;87;21383;-80
2023/08/14 05:13:32;;;;;;;7.43;6.50;;;;;;;17.64;100.00;100918.17;1477693;88;22410;-79
2023/08/14 05:15:58;;;;;;;9.77;6.37;;;;;;;17.75;100.00;100921.72;1466702;87;21331;-82
2023/08/14 05:18:25;;;;;;;9.97;7.00;;;;;;;17.85;100.00;100915.64;1471695;87;21367;-81
2023/08/14 05:20:53;;;;;;;9.20;6.57;;;;;;;17.91;100.00;100922.93;1471546;87;21367;-83
2023/08/14 05:23:20;;;;;;;7.97;6.50;;;;;;;18.01;100.00;100930.69;1474415;88;21598;-82
2023/08/14 05:25:46;;;;;;;9.50;5.77;;;;;;;18.11;100.00;100928.58;1472129;87;21412;-81
2023/08/14 05:28:13;;;;;;;9.18;6.33;;;;;;;18.24;100.00;100923.89;1477425;87;22219;-81
2023/08/14 05:30:44;;;;;;;12.05;6.85;;;;;;;18.41;100.00;100920.51;1472788;88;21317;-80
2023/08/14 05:33:12;;;;;;;7.37;6.20;;;;;;;18.54;100.00;100919.86;1470262;87;21434;-81
2023/08/14 05:35:39;;;;;;;9.50;7.22;;;;;;;18.68;100.00;100923.84;1471063;87;21681;-81
2023/08/14 05:38:07;;;;;;;8.48;7.60;;;;;;;18.78;100.00;100926.76;1476374;87;22204;-81
2023/08/14 05:40:33;;;;;;;13.35;6.80;;;;;;;18.84;100.00;100925.48;1470176;87;21345;-83
2023/08/14 05:43:13;;;;;;;14.13;7.00;;;;;;;19.01;100.00;100927.42;1474476;87;22292;-81
2023/08/14 05:45:43;;;;;;;9.73;6.25;;;;;;;19.13;100.00;100931.77;1466159;88;21604;-82
2023/08/14 05:48:10;;;;;;;12.97;7.13;;;;;;;19.27;100.00;100924.16;1466265;88;21427;-82
2023/08/14 05:50:43;;;;;;;8.70;5.92;;;;;;;19.37;100.00;100930.56;1474602;87;21674;-84
2023/08/14 05:53:09;;;;;;;14.47;6.28;;;;;;;19.46;100.00;100931.25;1466631;87;22268;-84
2023/08/14 05:55:38;;;;;;;10.18;6.55;;;;;;;19.60;100.00;100937.88;1471786;87;21360;-85
2023/08/14 05:58:06;;;;;;;7.92;5.83;;;;;;;19.72;100.00;100946.77;1469879;87;21449;-84
2023/08/14 06:00:35;;;;;;;6.78;5.67;;;;;;;19.86;100.00;100939.65;1481573;87;22203;-83
2023/08/14 06:03:03;;;;;;;10.60;5.75;;;;;;;19.97;100.00;100936.42;1471133;87;22285;-84
2023/08/14 06:05:29;;;;;;;15.05;6.55;;;;;;;20.10;100.00;100933.80;1470824;87;21346;-85
2023/08/14 06:07:57;;;;;;;7.83;5.90;;;;;;;20.26;100.00;100932.66;1469349;88;21508;-83
2023/08/14 06:10:23;;;;;;;11.95;6.42;;;;;;;20.38;100.00;100922.17;1467622;87;21429;-83
2023/08/14 06:12:50;;;;;;;13.43;5.62;;;;;;;20.48;100.00;100923.95;1473064;88;21390;-80
2023/08/14 06:15:20;;;;;;;12.82;6.10;;;;;;;20.65;100.00;100927.98;1474686;88;21567;-81
2023/08/14 06:17:48;;;;;;;9.18;5.62;;;;;;;20.86;100.00;100932.90;1473034;88;21537;-79
2023/08/14 06:20:15;;;;;;;5.78;5.22;;;;;;;21.18;100.00;100932.67;1467665;88;21464;-79
2023/08/14 06:22:43;;;;;;;48.20;5.97;;;;;;;21.18;100.00;100932.67;1470795;87;22270;-90
2023/08/14 06:25:28;;;;;;;9.10;4.17;;;;;;;21.32;100.00;100935.70;1467022;87;21427;-88
2023/08/14 06:27:40;;;;;;;6.87;5.45;;;;;;;21.51;100.00;100935.92;1479221;88;21448;-90
2023/08/14 06:30:08;;;;;;;10.78;5.03;;;;;;;21.73;100.00;100929.81;1479251;87;21353;-85
2023/08/14 06:32:35;;;;;;;6.10;4.87;;;;;;;21.96;100.00;100927.50;1470188;87;22270;-86
2023/08/14 06:35:03;;;;;;;26.62;5.87;;;;;;;22.18;100.00;100935.34;1474355;87;21516;-83
2023/08/14 06:37:30;;;;;;;5.30;4.80;;;;;;;22.31;100.00;100939.35;1466585;88;21427;-88
2023/08/14 06:39:56;;;;;;;16.45;4.85;;;;;;;22.46;100.00;100946.66;1472608;87;21523;-90
2023/08/14 06:42:23;;;;;;;7.62;4.87;;;;;;;22.61;100.00;100941.51;1475570;87;21419;-81
2023/08/14 06:44:52;;;;;;;7.05;4.40;;;;;;;22.67;100.00;100942.00;1467892;87;21627;-85
2023/08/14 06:47:18;;;;;;;9.95;4.62;;;;;;;22.78;100.00;100947.25;1464083;87;21526;-85
2023/08/14 06:56:52;;;;;;;8.93;5.37;;;;;;;23.21;100.00;100962.27;1474475;87;21575;-88
2023/08/14 06:59:19;;;;;;;16.57;4.80;;;;;;;23.31;100.00;100962.63;1473865;87;22323;-86
2023/08/14 07:01:48;;;;;;;9.88;3.92;;;;;;;23.45;100.00;100961.17;1473868;87;21449;-85
2023/08/14 07:04:14;;;;;;;11.12;4.28;;;;;;;23.61;100.00;100970.09;1464976;88;21564;-90
2023/08/14 07:06:41;;;;;;;14.58;5.05;;;;;;;23.77;100.00;100970.92;1473532;87;21501;-89
2023/08/14 07:09:07;;;;;;;8.15;4.30;;;;;;;23.90;100.00;100966.44;1471415;87;21368;-86
2023/08/14 07:15:34;;;;;;;5.10;3.65;;;;;;;24.16;100.00;100960.75;1473131;88;22866;-89
2023/08/14 07:18:00;;;;;;;6.83;4.15;;;;;;;24.33;100.00;100965.86;1474551;87;22495;-86
2023/08/14 07:20:26;;;;;;;9.88;3.67;;;;;;;24.33;100.00;100963.16;1471243;88;22381;-92
2023/08/14 07:22:54;;;;;;;12.63;3.80;;;;;;;24.45;100.00;100974.61;1416837;90;21912;-89
2023/08/14 07:25:20;;;;;;;9.08;4.05;;;;;;;24.46;100.00;100969.52;1395095;88;21316;-83
2023/08/14 07:27:47;;;;;;;14.00;4.50;;;;;;;24.49;100.00;100970.42;1396802;87;21243;-89
2023/08/14 07:30:14;;;;;;;6.25;3.72;;;;;;;24.60;100.00;100973.72;1402673;87;22249;-87
2023/08/14 07:32:40;;;;;;;7.67;4.45;;;;;;;24.78;100.00;100976.10;1558703;87;21236;-84
2023/08/14 07:35:07;;;;;;;6.67;3.92;;;;;;;24.91;100.00;100965.89;1398911;87;21405;-88
2023/08/14 07:37:33;;;;;;;7.78;3.98;;;;;;;24.96;100.00;100969.28;1403241;87;21280;-85
2023/08/14 07:40:00;;;;;;;6.30;3.70;;;;;;;25.05;100.00;100971.95;1472420;87;21383;-85
2023/08/14 07:42:26;;;;;;;10.05;4.03;;;;;;;25.18;100.00;100974.52;1474137;87;21519;-88
2023/08/14 07:44:53;;;;;;;7.78;3.52;;;;;;;25.32;100.00;100971.59;1468193;88;22549;-85
2023/08/14 07:47:44;;;;;;;4.85;3.65;;;;;;;25.44;100.00;100969.22;1472408;87;21479;-85
2023/08/14 07:50:11;;;;;;;7.60;4.42;;;;;;;25.55;100.00;100975.72;1469912;87;21434;-85
2023/08/14 07:52:38;;;;;;;11.48;4.53;;;;;;;25.71;100.00;100973.38;1477140;87;21523;-88
2023/08/14 07:55:05;;;;;;;6.75;3.33;;;;;;;25.87;100.00;100976.78;1474358;87;21382;-87
2023/08/14 07:57:31;;;;;;;3.60;3.08;;;;;;;25.95;100.00;100983.20;1474263;87;21553;-85
2023/08/14 07:59:58;;;;;;;16.48;4.10;;;;;;;26.05;100.00;100973.93;1468110;87;21398;-86
2023/08/14 08:02:24;;;;;;;8.43;4.00;;;;;;;26.19;100.00;100970.98;1472128;88;21383;-87
2023/08/14 08:04:51;;;;;;;4.97;3.62;;;;;;;26.33;100.00;100971.02;1468387;87;21515;-90
2023/08/14 08:07:17;;;;;;;7.40;3.37;;;;;;;26.31;100.00;100969.06;1467691;88;21339;-86
2023/08/14 08:09:43;;;;;;;8.93;3.77;;;;;;;26.31;100.00;100971.24;1475651;87;21540;-85
2023/08/14 08:12:11;;;;;;;6.62;3.17;;;;;;;26.41;100.00;100971.98;1472911;87;21390;-87
2023/08/14 08:14:40;;;;;;;5.53;3.70;;;;;;;26.54;100.00;100972.29;1469711;88;22291;-82
2023/08/14 08:17:08;;;;;;;7.10;3.55;;;;;;;26.59;100.00;100971.04;1476942;87;21451;-85
2023/08/14 08:23:33;;;;;;;5.58;3.17;;;;;;;26.84;99.92;100972.59;1485472;88;21490;-88
2023/08/14 08:26:00;;;;;;;10.10;3.92;;;;;;;26.96;100.00;100968.77;1393249;88;21600;-90
2023/08/14 08:28:26;;;;;;;5.33;3.22;;;;;;;26.98;99.57;100963.08;1398296;88;21264;-83
2023/08/14 08:30:52;;;;;;;10.18;4.03;;;;;;;27.15;100.00;100968.05;1403103;87;21398;-87
2023/08/14 08:33:18;;;;;;;7.00;3.50;;;;;;;27.31;99.15;100965.08;1398511;87;22139;-85
2023/08/14 08:35:45;;;;;;;6.80;3.17;;;;;;;27.41;98.81;100968.48;1400921;88;22499;-88
2023/08/14 08:38:14;;;;;;;6.87;3.83;;;;;;;27.55;98.50;100968.98;1470115;87;21515;-85
2023/08/14 08:40:44;;;;;;;10.28;4.00;;;;;;;27.61;96.21;100963.38;1473065;87;21471;-86
2023/08/14 08:43:10;;;;;;;5.25;3.40;;;;;;;27.67;94.73;100967.00;1558290;87;21368;-87
2023/08/14 08:45:38;;;;;;;4.62;2.90;;;;;;;27.74;94.38;100961.41;1398524;88;21228;-86
2023/08/14 08:48:07;;;;;;;5.42;3.92;;;;;;;27.72;92.05;100958.93;1396055;88;21302;-87
2023/08/14 08:50:33;;;;;;;5.10;2.98;;;;;;;27.84;93.99;100962.39;1395712;87;21317;-88
2023/08/14 08:52:59;;;;;;;9.80;3.58;;;;;;;;;;1398069;88;21243;-87
2023/08/14 08:59:32;;;;;;;6.00;2.83;;;;;;;28.10;85.09;100957.32;1414131;88;21441;-87
2023/08/14 09:01:59;;;;;;;10.15;3.20;;;;;;;28.26;90.18;100949.66;1403082;87;21279;-89
2023/08/14 09:04:25;;;;;;;5.75;3.37;;;;;;;28.28;86.99;100950.75;1559077;87;21251;-89
2023/08/14 09:06:52;;;;;;;4.62;2.98;;;;;;;28.44;88.16;100950.45;1398194;88;22227;-87
2023/08/14 09:09:19;;;;;;;4.95;2.95;;;;;;;28.57;87.83;100947.34;1403644;88;21265;-90
2023/08/14 09:11:46;;;;;;;7.15;2.95;;;;;;;28.65;77.95;100945.51;1397397;87;21250;-85
2023/08/14 09:14:13;;;;;;;6.45;3.22;;;;;;;28.72;76.59;100946.14;1403833;87;21176;-88
2023/08/14 09:16:40;;;;;;;3.60;2.60;;;;;;;28.78;76.91;100945.12;1559373;87;21529;-88
2023/08/14 09:19:06;;;;;;;6.33;2.77;;;;;;;28.79;77.04;100944.03;1440006;88;21507;-89
2023/08/14 09:21:33;;;;;;;6.75;2.60;;;;;;;28.94;77.19;100946.63;1469769;88;21434;-90
2023/08/14 09:23:59;;;;;;;7.05;2.77;;;;;;;29.05;76.34;100942.14;1464886;88;22954;-89
2023/08/14 09:26:26;;;;;;;6.35;3.25;;;;;;;29.18;77.59;100941.18;1465958;88;21456;-88
2023/08/14 09:28:53;;;;;;;9.63;2.65;;;;;;;29.31;76.75;100937.73;1478051;87;21508;-90
2023/08/14 09:31:20;;;;;;;4.62;2.50;;;;;;;29.41;76.65;100931.02;1469759;87;21486;-90
2023/08/14 09:33:46;;;;;;;7.47;3.12;;;;;;;29.43;75.59;100931.55;1476081;87;21336;-89
2023/08/14 09:36:12;;;;;;;5.83;2.77;;;;;;;29.45;74.63;100926.66;1474545;87;21508;-87
2023/08/14 09:38:39;;;;;;;5.28;2.70;;;;;;;29.52;75.21;100936.83;1473163;87;22307;-90
2023/08/14 09:41:06;;;;;;;4.55;2.70;;;;;;;29.24;71.30;100927.88;1475605;87;21574;-88
2023/08/14 09:43:33;;;;;;;3.50;2.40;;;;;;;29.37;74.87;100932.59;1475488;87;21383;-80
2023/08/14 09:46:01;;;;;;;6.75;3.20;;;;;;;29.49;75.15;100927.77;1397039;87;21199;-78
2023/08/14 09:48:47;;;;;;;7.62;2.17;;;;;;;29.55;74.12;100926.75;1396258;87;22020;-80
2023/08/14 09:51:16;;;;;;;6.70;2.75;;;;;;;29.68;73.39;100926.86;1486462;87;21441;-79
2023/08/14 09:53:58;;;;;;;5.40;2.50;;;;;;;29.85;73.62;100928.87;1471792;87;21530;-83
2023/08/14 09:56:25;;;;;;;4.97;2.15;;;;;;;29.99;72.99;100922.41;1468955;87;22058;-89
2023/08/14 09:58:54;;;;;;;7.00;2.92;;;;;;;30.12;71.46;100922.45;1476894;88;21687;-89
2023/08/14 10:01:22;;;;;;;5.28;2.70;;;;;;;30.24;71.34;100924.98;1474746;88;21361;-89
2023/08/14 10:03:53;;;;;;;8.88;2.62;;;;;;;30.38;71.03;100923.95;1475205;87;21552;-89
2023/08/14 10:06:24;;;;;;;7.60;2.40;;;;;;;30.52;71.16;100913.62;1475760;87;21375;-89
2023/08/14 10:08:56;;;;;;;4.05;2.30;;;;;;;30.68;71.15;100919.95;1472596;88;21462;-88
2023/08/14 10:11:29;;;;;;;4.55;2.87;;;;;;;30.83;71.21;100921.11;1474152;87;22859;-87
2023/08/14 10:14:00;;;;;;;3.85;2.47;;;;;;;30.89;60.57;100920.02;1471133;87;22248;-88
2023/08/14 10:16:40;;;;;;;3.92;2.70;;;;;;;30.94;59.87;100920.03;1475728;87;21397;-88
2023/08/14 10:19:11;;;;;;;20.30;3.15;;;;;;;30.99;59.28;100918.13;1477166;87;21419;-88
2023/08/14 10:21:41;;;;;;;4.83;2.70;;;;;;;31.01;59.16;100918.65;1480630;87;21441;-88
2023/08/14 10:24:08;;;;;;;5.87;2.70;;;;;;;31.03;52.96;100914.30;1474745;87;21456;-87
2023/08/14 10:26:34;;;;;;;5.95;2.67;;;;;;;31.14;53.18;100913.76;1472372;87;21497;-87
2023/08/14 10:29:02;;;;;;;7.17;2.67;;;;;;;30.87;45.41;100903.88;1474293;87;22478;-87
2023/08/14 10:31:29;;;;;;;8.88;2.90;;;;;;;30.92;47.26;100903.08;1468134;87;21561;-89
2023/08/14 10:33:58;;;;;;;3.67;2.58;;;;;;;30.92;47.56;100899.80;1474932;88;22477;-86
2023/08/14 10:36:28;;;;;;;5.20;2.30;;;;;;;30.86;45.84;100902.25;1473466;88;21404;-90
2023/08/14 10:38:54;;;;;;;6.20;2.67;;;;;;;30.72;46.36;100905.20;1473575;87;21514;-87
2023/08/14 10:41:21;;;;;;;8.05;2.85;;;;;;;30.77;46.77;100896.47;1474442;87;21360;-88
2023/08/14 10:43:52;;;;;;;7.15;3.08;;;;;;;30.53;45.87;100896.16;1473215;87;22351;-89
2023/08/14 10:46:18;;;;;;;5.85;2.90;;;;;;;30.54;45.93;100896.98;1472943;87;22396;-90
2023/08/14 10:49:56;;;;;;;7.00;2.83;;;;;;;30.63;46.86;100898.64;1469874;88;21331;-86
2023/08/14 10:52:25;;;;;;;5.80;3.10;;;;;;;30.64;46.30;100892.88;1470786;87;21443;-85
2023/08/14 10:54:52;;;;;;;3.00;2.50;;;;;;;30.58;45.80;100896.19;1473769;88;21367;-87
2023/08/14 10:57:24;;;;;;;4.90;2.33;;;;;;;30.41;44.61;100894.20;1472784;87;21500;-88
2023/08/14 10:59:56;;;;;;;5.10;2.47;;;;;;;30.57;46.13;100897.25;1478277;88;22476;-88
2023/08/14 11:02:25;;;;;;;7.33;2.70;;;;;;;30.74;46.15;100897.56;1558600;88;21265;-88
2023/08/14 11:05:13;;;;;;;6.75;2.50;;;;;;;30.87;45.96;100887.48;1394783;87;21577;-89
2023/08/14 11:07:59;;;;;;;7.83;2.60;;;;;;;31.00;45.54;100887.52;1545416;87;21376;-90
2023/08/14 11:10:26;;;;;;;4.00;2.60;;;;;;;30.97;44.67;100877.13;1395536;88;21287;-89
2023/08/14 11:12:56;;;;;;;4.33;2.80;;;;;;;30.76;42.50;100879.81;1399104;88;21236;-89
2023/08/14 11:15:22;;;;;;;;;;;;;;;30.97;43.36;100884.77;1395790;87;21372;-88
2023/08/14 11:17:49;;;;;;;6.45;2.83;;;;;;;31.04;43.53;100881.76;1397897;87;20237;-88
2023/08/14 11:20:15;;;;;;;3.17;2.65;;;;;;;31.19;43.39;100875.49;1397210;87;22235;-88
2023/08/14 11:22:46;;;;;;;5.50;2.10;;;;;;;31.35;43.24;100877.13;1403492;87;22239;-89
2023/08/14 11:25:15;;;;;;;4.83;2.47;;;;;;;31.51;42.80;100873.02;1402401;88;21368;-89
2023/08/14 11:27:53;;;;;;;3.87;2.40;;;;;;;31.60;41.24;100869.98;1477364;87;21455;-88
2023/08/14 11:30:22;;;;;;;6.17;2.60;;;;;;;31.63;41.48;100869.42;1467497;88;22166;-89
2023/08/14 11:32:50;;;;;;;11.00;3.45;;;;;;;31.67;41.89;100869.94;1466522;88;22747;-89
2023/08/14 11:35:17;;;;;;;3.87;2.35;;;;;;;31.70;41.49;100867.20;1480264;87;21323;-90
2023/08/14 11:37:47;;;;;;;3.92;2.60;;;;;;;31.70;41.13;100864.47;1462991;88;21644;-90
2023/08/14 11:40:17;;;;;;;;;;;;;;;31.80;41.42;100864.45;1480688;87;21331;-89
2023/08/14 11:42:44;;;;;;;9.98;2.02;;;;;;;31.84;41.64;100863.33;1473000;87;20737;-90